Nearby METAR Reports

 

YBUD - Bundaberg, Australia
Distance from station: SSW 6km
Updated: 08/05/2021 20:00
Clear
Clear
 Wind from calm
Wind: Calm
Temperature: 19°C
Dew Point: 17°C
Humidity: 88%
Barometer: 1016 hPa
Clouds: Clear
Visibility: 10 km
2021/05/08 10:00 YBUD 081000Z AUTO 00000KT 9999 // NCD 19/17 Q1016
YGLA - Gladstone, Australia
Distance from station: NW 159km
Updated: 08/05/2021 20:30
Clear
Clear
 Wind from calm
Wind: Calm
Temperature: 21°C
Dew Point: 16°C
Humidity: 73%
Barometer: 1017 hPa
Clouds: Clear
Visibility: 10 km
2021/05/08 10:30 YGLA 081030Z AUTO 00000KT 9999 // NCD 21/16 Q1017 RF00.0/000.0
YBRK - Rockhampton Airp, Australia
Distance from station: NW 252km
Updated: 08/05/2021 20:30
Clear
Clear
 Wind from SSE
Wind: SSE 2 km/h
Temperature: 21°C
Dew Point: 14°C
Humidity: 64%
Barometer: 1016 hPa
Clouds: Clear
Visibility: 10 km
2021/05/08 10:30 YBRK 081030Z AUTO 15001KT 9999 // NCD 21/14 Q1016 RF00.0/000.0
 
YBBN - Brisbane Intl Ar, Australia
Distance from station: SSE 292km
Updated: 08/05/2021 20:30
Clear
Clear
 Wind from N
Wind: N 7 km/h
Temperature: 19°C
Dew Point: 18°C
Humidity: 94%
Barometer: 1017 hPa
Summary: Clear
Visibility: greater than 10 km
2021/05/08 10:30 YBBN 081030Z 01004KT CAVOK 19/18 Q1017
YAMB - Amberley, Australia
Distance from station: S 312km
Updated: 08/05/2021 20:30
Clear
Clear
 Wind from ENE
Wind: ENE 9 km/h
Temperature: 17°C
Dew Point: 15°C
Humidity: 88%
Barometer: 1016 hPa
Clouds: Clear
Visibility: 10 km
2021/05/08 10:30 YAMB 081030Z AUTO 07005KT 9999 // NCD 17/15 Q1016
YBCG - Coolangatta Aws, Australia
Distance from station: SSE 386km
Updated: 08/05/2021 20:30
Clear
Clear
 Wind from WNW
Wind: WNW 2 km/h
Temperature: 18°C
Dew Point: 17°C
Humidity: 94%
Barometer: 1017 hPa
Clouds: Clear
Visibility: 10 km
2021/05/08 10:30 YBCG 081030Z AUTO 29001KT 9999 // NCD 18/17 Q1017 RF00.0/000.0